Time;durP1;ratioP1;P1;durP2;ratioP2;P2;SDS_P1;SDS_P2;PMS_P1;PMS_P2;Temp;Humidity;BMP_temperature;BMP_pressure;BME280_temperature;BME280_humidity;BME280_pressure;Samples;Min_cycle;Max_cycle;Signal;HPM_P1;HPM_P2
2021/03/29 00:01:38;;;;;;;62.97;7.70;;;;;;;;;;5062048;28;20098;-58
2021/03/29 00:04:04;;;;;;;58.92;8.32;;;;;;;;;;5060832;28;20093;-58
2021/03/29 00:06:30;;;;;;;63.88;8.25;;;;;;;;;;5058082;28;20440;-58
2021/03/29 00:08:57;;;;;;;44.28;5.40;;;;;;;;;;5063070;28;20036;-58
2021/03/29 00:11:24;;;;;;;69.18;8.60;;;;;;;;;;5060931;28;20052;-58
2021/03/29 00:13:52;;;;;;;67.00;9.43;;;;;;;;;;5063352;28;20040;-58
2021/03/29 00:16:18;;;;;;;;;;;;;;;;;;5064702;28;20377;-58
2021/03/29 00:18:44;;;;;;;72.60;11.52;;;;;;;;;;5051115;28;20381;-58
2021/03/29 00:21:11;;;;;;;78.55;10.85;;;;;;;;;;5061629;28;20484;-58
2021/03/29 00:23:38;;;;;;;68.73;9.57;;;;;;;;;;5065302;28;20059;-58
2021/03/29 00:26:05;;;;;;;78.68;11.00;;;;;;;;;;5064321;28;20306;-58
2021/03/29 00:28:31;;;;;;;61.88;11.35;;;;;;;;;;5063987;28;20106;-58
2021/03/29 00:30:57;;;;;;;64.07;9.68;;;;;;;;;;5061348;28;20048;-58
2021/03/29 00:33:25;;;;;;;51.65;8.20;;;;;;;;;;5062999;28;20087;-58
2021/03/29 00:35:52;;;;;;;61.78;11.38;;;;;;;;;;5061632;28;20044;-58
2021/03/29 00:38:20;;;;;;;58.20;11.15;;;;;;;;;;5064246;28;20082;-58
2021/03/29 00:40:52;;;;;;;76.18;11.00;;;;;;;;;;5068010;28;20045;-59
2021/03/29 00:43:32;;;;;;;77.57;10.75;;;;;;;;;;5062360;28;20541;-58
2021/03/29 00:46:00;;;;;;;76.55;11.85;;;;;;;;;;5062973;28;20454;-59
2021/03/29 00:48:28;;;;;;;66.45;10.63;;;;;;;;;;5058222;28;20040;-58
2021/03/29 00:50:57;;;;;;;69.45;10.48;;;;;;;;;;5064610;28;20043;-58
2021/03/29 00:53:24;;;;;;;83.13;12.00;;;;;;;;;;5051532;28;20049;-58
2021/03/29 00:55:51;;;;;;;61.78;10.45;;;;;;;;;;5063105;28;20090;-58
2021/03/29 00:58:22;;;;;;;63.92;9.40;;;;;;;;;;5063666;28;20052;-58
2021/03/29 01:00:50;;;;;;;65.22;11.57;;;;;;;;;;5063926;28;20051;-58
2021/03/29 01:03:17;;;;;;;82.32;9.77;;;;;;;;;;5063159;28;20090;-58
2021/03/29 01:05:44;;;;;;;80.93;12.50;;;;;;;;;;5061635;28;20045;-59
2021/03/29 01:08:13;;;;;;;81.43;12.10;;;;;;;;;;5064661;28;20127;-58
2021/03/29 01:10:39;;;;;;;77.00;11.90;;;;;;;;;;5063680;28;20056;-58
2021/03/29 01:13:09;;;;;;;97.68;15.25;;;;;;;;;;5063666;28;20040;-58
2021/03/29 01:15:36;;;;;;;73.25;12.43;;;;;;;;;;5065643;28;20547;-58
2021/03/29 01:18:04;;;;;;;89.00;13.20;;;;;;;;;;5064450;28;20047;-58
2021/03/29 01:20:30;;;;;;;;;;;;;;;;;;5066888;28;20510;-59
2021/03/29 01:22:57;;;;;;;77.78;13.02;;;;;;;;;;5063230;28;19920;-58
2021/03/29 01:25:56;;;;;;;85.77;15.00;;;;;;;;;;5068589;28;20565;-58
2021/03/29 01:28:23;;;;;;;89.93;15.90;;;;;;;;;;5017587;28;20131;-59
2021/03/29 01:30:50;;;;;;;101.00;15.25;;;;;;;;;;5044250;28;20113;-58
2021/03/29 01:33:16;;;;;;;96.97;17.10;;;;;;;;;;5044254;28;20048;-59
2021/03/29 01:35:45;;;;;;;72.60;15.40;;;;;;;;;;5042587;28;20136;-58
2021/03/29 01:38:12;;;;;;;90.95;16.10;;;;;;;;;;5045098;28;20492;-58
2021/03/29 01:40:39;;;;;;;79.47;15.82;;;;;;;;;;5042347;28;20529;-58
2021/03/29 01:43:06;;;;;;;80.10;15.68;;;;;;;;;;5046929;28;20037;-58
2021/03/29 01:45:33;;;;;;;66.85;15.60;;;;;;;;;;5043208;28;20404;-58
2021/03/29 01:48:01;;;;;;;84.05;16.80;;;;;;;;;;5038753;28;20052;-58
2021/03/29 01:50:27;;;;;;;;;;;;;;;;;;5042840;28;20084;-58
2021/03/29 01:52:55;;;;;;;79.13;15.20;;;;;;;;;;5045759;28;19988;-59
2021/03/29 01:55:21;;;;;;;89.57;17.20;;;;;;;;;;5040548;28;20054;-58
2021/03/29 01:57:48;;;;;;;103.37;17.97;;;;;;;;;;5043263;28;20554;-58
2021/03/29 02:00:17;;;;;;;73.80;17.10;;;;;;;;;;5044510;28;20037;-58
2021/03/29 02:02:43;;;;;;;89.28;17.10;;;;;;;;;;5045178;28;20053;-58
2021/03/29 02:05:12;;;;;;;70.53;15.57;;;;;;;;;;5039063;28;20503;-58
2021/03/29 02:07:38;;;;;;;78.00;16.42;;;;;;;;;;5047350;28;20569;-58
2021/03/29 02:10:12;;;;;;;66.57;14.17;;;;;;;;;;5043298;28;20051;-59
2021/03/29 02:12:39;;;;;;;57.55;13.93;;;;;;;;;;5043121;28;20413;-58
2021/03/29 02:15:13;;;;;;;66.97;13.45;;;;;;;;;;5039721;28;20516;-58
2021/03/29 02:17:41;;;;;;;62.60;11.80;;;;;;;;;;5043499;28;20087;-59
2021/03/29 02:20:13;;;;;;;61.58;11.65;;;;;;;;;;5044220;28;20045;-58
2021/03/29 02:22:39;;;;;;;49.85;11.70;;;;;;;;;;5042238;28;20578;-58
2021/03/29 02:25:06;;;;;;;55.17;10.60;;;;;;;;;;5043511;28;20488;-59
2021/03/29 02:27:34;;;;;;;45.88;10.13;;;;;;;;;;5051204;28;20045;-58
2021/03/29 02:30:05;;;;;;;56.38;8.85;;;;;;;;;;5062695;28;20037;-59
2021/03/29 02:32:33;;;;;;;57.28;9.68;;;;;;;;;;5063846;28;20515;-59
2021/03/29 02:35:00;;;;;;;47.33;8.80;;;;;;;;;;5065062;28;20500;-58
2021/03/29 02:37:27;;;;;;;45.45;10.45;;;;;;;;;;5060738;28;20423;-58
2021/03/29 02:39:53;;;;;;;41.10;8.93;;;;;;;;;;5058279;28;20048;-59
2021/03/29 02:42:19;;;;;;;51.75;9.43;;;;;;;;;;5062097;28;20049;-59
2021/03/29 02:44:46;;;;;;;58.90;11.00;;;;;;;;;;5059135;28;20048;-58
2021/03/29 02:47:12;;;;;;;52.03;10.03;;;;;;;;;;5059496;28;20048;-59
2021/03/29 02:49:39;;;;;;;45.50;10.52;;;;;;;;;;5060645;28;20032;-58
2021/03/29 02:52:07;;;;;;;39.13;9.93;;;;;;;;;;5058330;28;20086;-59
2021/03/29 02:54:34;;;;;;;41.47;10.75;;;;;;;;;;5064326;28;20049;-59
2021/03/29 02:57:00;;;;;;;41.75;11.07;;;;;;;;;;5060080;28;20661;-58
2021/03/29 02:59:27;;;;;;;45.43;11.97;;;;;;;;;;5061915;28;20036;-58
2021/03/29 03:01:54;;;;;;;45.17;12.20;;;;;;;;;;5061848;28;20132;-58
2021/03/29 03:04:20;;;;;;;52.08;14.20;;;;;;;;;;5063260;28;20056;-58
2021/03/29 03:06:47;;;;;;;52.38;13.85;;;;;;;;;;5066190;28;20561;-58
2021/03/29 03:09:14;;;;;;;45.63;14.75;;;;;;;;;;5057379;28;20131;-59
2021/03/29 03:11:43;;;;;;;59.05;16.05;;;;;;;;;;5061614;28;20036;-59
2021/03/29 03:14:10;;;;;;;50.53;13.73;;;;;;;;;;5061954;28;20062;-58
2021/03/29 03:16:36;;;;;;;39.67;13.20;;;;;;;;;;5063072;28;20428;-59
2021/03/29 03:19:07;;;;;;;50.10;13.90;;;;;;;;;;5064415;28;20675;-58
2021/03/29 03:21:34;;;;;;;32.65;12.13;;;;;;;;;;5062973;28;20041;-59
2021/03/29 03:24:01;;;;;;;44.30;13.15;;;;;;;;;;5065607;28;20068;-58
2021/03/29 03:26:28;;;;;;;44.40;13.03;;;;;;;;;;5061782;28;20196;-59
2021/03/29 03:28:54;;;;;;;38.60;13.90;;;;;;;;;;5038612;28;20296;-58
2021/03/29 03:31:22;;;;;;;48.33;14.17;;;;;;;;;;5038166;28;20512;-58
2021/03/29 03:33:48;;;;;;;35.95;12.43;;;;;;;;;;5038351;28;20394;-58
2021/03/29 03:36:16;;;;;;;37.25;11.43;;;;;;;;;;5038786;28;20568;-58
2021/03/29 03:38:43;;;;;;;30.95;11.43;;;;;;;;;;5042142;28;20102;-58
2021/03/29 03:41:12;;;;;;;31.52;10.27;;;;;;;;;;5043312;28;20037;-58
2021/03/29 03:43:43;;;;;;;23.52;9.40;;;;;;;;;;5039630;28;20114;-59
2021/03/29 03:46:20;;;;;;;28.48;10.20;;;;;;;;;;5039903;28;20048;-59
2021/03/29 03:48:46;;;;;;;22.83;9.10;;;;;;;;;;5045836;28;20049;-59
2021/03/29 03:51:13;;;;;;;19.50;8.23;;;;;;;;;;5040058;28;20037;-58
2021/03/29 03:53:39;;;;;;;18.42;8.30;;;;;;;;;;5046771;28;20716;-58
2021/03/29 03:56:06;;;;;;;23.50;8.23;;;;;;;;;;5048219;28;20060;-58
2021/03/29 03:58:33;;;;;;;18.52;7.43;;;;;;;;;;5049032;28;20136;-59
2021/03/29 04:00:59;;;;;;;16.08;7.07;;;;;;;;;;5045426;28;20037;-58
2021/03/29 04:03:28;;;;;;;17.42;6.55;;;;;;;;;;5041009;28;20382;-58
2021/03/29 04:05:54;;;;;;;;;;;;;;;;;;5047238;28;20049;-58
2021/03/29 04:08:38;;;;;;;12.82;5.60;;;;;;;;;;5044283;28;19939;-58
2021/03/29 04:11:06;;;;;;;16.75;6.28;;;;;;;;;;5046655;28;20045;-59
2021/03/29 04:13:32;;;;;;;13.18;5.50;;;;;;;;;;5048476;28;20037;-58
2021/03/29 04:15:59;;;;;;;12.95;6.55;;;;;;;;;;5049515;28;20041;-58
2021/03/29 04:18:26;;;;;;;15.25;7.32;;;;;;;;;;5047033;28;20060;-58
2021/03/29 04:20:53;;;;;;;18.43;7.20;;;;;;;;;;5041331;28;20040;-58
2021/03/29 04:23:22;;;;;;;18.17;8.27;;;;;;;;;;5045962;28;20068;-58
2021/03/29 04:25:50;;;;;;;22.92;9.20;;;;;;;;;;5047911;28;20747;-58
2021/03/29 04:28:16;;;;;;;24.80;10.00;;;;;;;;;;5046786;28;20049;-59
2021/03/29 04:30:43;;;;;;;26.88;10.73;;;;;;;;;;5045495;28;20065;-59
2021/03/29 04:33:09;;;;;;;30.05;11.65;;;;;;;;;;5048153;28;20068;-58
2021/03/29 04:35:35;;;;;;;28.60;11.55;;;;;;;;;;5043598;28;20045;-59
2021/03/29 04:38:02;;;;;;;33.33;10.98;;;;;;;;;;5041798;28;20044;-59
2021/03/29 04:40:30;;;;;;;28.88;12.25;;;;;;;;;;5047333;28;20073;-58
2021/03/29 04:42:56;;;;;;;26.70;10.35;;;;;;;;;;5042682;28;20120;-58
2021/03/29 04:45:22;;;;;;;29.60;12.43;;;;;;;;;;5043510;28;20706;-59
2021/03/29 04:47:49;;;;;;;34.10;12.23;;;;;;;;;;5043498;28;20050;-59
2021/03/29 04:50:18;;;;;;;39.00;13.52;;;;;;;;;;5048344;28;20056;-59
2021/03/29 04:52:44;;;;;;;32.58;13.35;;;;;;;;;;5043351;28;20056;-59
2021/03/29 04:55:12;;;;;;;26.27;12.05;;;;;;;;;;5049218;28;20128;-58
2021/03/29 04:57:38;;;;;;;29.55;11.90;;;;;;;;;;5047646;28;20106;-58
2021/03/29 05:00:05;;;;;;;36.92;13.23;;;;;;;;;;5037562;28;20559;-59
2021/03/29 05:02:31;;;;;;;34.67;12.77;;;;;;;;;;5043431;28;20548;-59
2021/03/29 05:04:57;;;;;;;34.15;12.73;;;;;;;;;;5040228;28;20061;-59
2021/03/29 05:07:24;;;;;;;29.45;12.00;;;;;;;;;;5039993;28;20073;-59
2021/03/29 05:09:51;;;;;;;22.73;9.87;;;;;;;;;;5045868;28;20052;-59
2021/03/29 05:12:20;;;;;;;26.80;11.43;;;;;;;;;;5043619;28;20068;-59
2021/03/29 05:14:46;;;;;;;24.27;9.50;;;;;;;;;;5043832;28;20029;-58
2021/03/29 05:17:13;;;;;;;26.63;9.38;;;;;;;;;;5042426;28;20077;-58
2021/03/29 05:19:40;;;;;;;19.33;8.63;;;;;;;;;;5041857;28;20046;-59
2021/03/29 05:22:06;;;;;;;22.58;8.60;;;;;;;;;;5044043;28;20091;-58
2021/03/29 05:24:33;;;;;;;17.25;8.02;;;;;;;;;;5044480;28;20037;-59
2021/03/29 05:26:59;;;;;;;19.43;7.37;;;;;;;;;;5049975;28;20048;-58
2021/03/29 05:29:40;;;;;;;17.25;6.70;;;;;;;;;;5068592;28;20496;-58
2021/03/29 05:32:11;;;;;;;18.38;6.07;;;;;;;;;;5067403;28;20048;-59
2021/03/29 05:34:37;;;;;;;17.25;7.00;;;;;;;;;;5063513;28;20138;-59
2021/03/29 05:37:04;;;;;;;16.05;7.30;;;;;;;;;;5065450;28;20072;-59
2021/03/29 05:39:30;;;;;;;19.58;7.60;;;;;;;;;;5064410;28;20098;-59
2021/03/29 05:41:57;;;;;;;17.23;7.20;;;;;;;;;;5065469;28;20139;-58
2021/03/29 05:44:23;;;;;;;17.42;7.25;;;;;;;;;;5067031;28;20036;-59
2021/03/29 05:46:50;;;;;;;20.30;7.97;;;;;;;;;;5067938;28;20048;-58
2021/03/29 05:49:16;;;;;;;15.73;6.53;;;;;;;;;;5064924;28;20041;-58
2021/03/29 05:51:43;;;;;;;18.15;6.10;;;;;;;;;;5061624;28;20040;-58
2021/03/29 05:54:09;;;;;;;18.50;6.33;;;;;;;;;;5064594;28;20037;-59
2021/03/29 05:56:38;;;;;;;13.68;6.35;;;;;;;;;;5062132;28;20053;-59
2021/03/29 06:01:47;;;;;;;20.75;6.95;;;;;;;;;;5060402;28;20576;-59
2021/03/29 06:04:15;;;;;;;22.67;6.80;;;;;;;;;;5064807;28;20033;-58
2021/03/29 06:06:42;;;;;;;18.55;7.18;;;;;;;;;;5062156;28;20143;-59
2021/03/29 06:09:09;;;;;;;19.73;6.85;;;;;;;;;;5068533;28;20120;-59
2021/03/29 06:11:37;;;;;;;18.07;6.70;;;;;;;;;;5066415;28;20040;-59
2021/03/29 06:14:21;;;;;;;15.23;4.95;;;;;;;;;;5065513;28;20052;-59
2021/03/29 06:16:51;;;;;;;12.73;5.32;;;;;;;;;;5062574;28;20079;-58
2021/03/29 06:19:32;;;;;;;11.48;5.32;;;;;;;;;;5063018;28;20037;-59
2021/03/29 06:22:13;;;;;;;11.13;4.50;;;;;;;;;;5056598;28;20053;-59
2021/03/29 06:24:52;;;;;;;19.38;6.32;;;;;;;;;;5062563;28;20040;-59
2021/03/29 06:27:19;;;;;;;15.52;4.57;;;;;;;;;;5060379;28;20141;-59
2021/03/29 06:29:46;;;;;;;6.50;3.55;;;;;;;;;;5062543;28;20127;-59
2021/03/29 06:32:19;;;;;;;8.75;4.65;;;;;;;;;;5066343;28;20040;-59
2021/03/29 06:34:45;;;;;;;10.10;4.05;;;;;;;;;;5061528;28;20041;-59
2021/03/29 06:37:12;;;;;;;8.18;3.38;;;;;;;;;;5065424;28;20403;-59
2021/03/29 06:39:38;;;;;;;9.20;3.63;;;;;;;;;;5062885;28;20041;-59
2021/03/29 06:42:05;;;;;;;9.35;3.78;;;;;;;;;;5060584;28;20508;-59
2021/03/29 06:44:33;;;;;;;4.88;2.97;;;;;;;;;;5061760;28;20446;-59
2021/03/29 06:47:11;;;;;;;6.30;3.47;;;;;;;;;;5046290;28;20048;-58
2021/03/29 06:49:42;;;;;;;7.82;2.97;;;;;;;;;;5063198;28;20182;-58
2021/03/29 06:52:25;;;;;;;7.32;3.10;;;;;;;;;;5067176;28;20040;-59
2021/03/29 06:54:53;;;;;;;7.80;3.08;;;;;;;;;;5062268;28;20099;-59
2021/03/29 06:57:29;;;;;;;7.18;2.70;;;;;;;;;;5065909;28;20102;-58
2021/03/29 06:59:56;;;;;;;5.18;2.40;;;;;;;;;;5066195;28;20097;-59
2021/03/29 07:02:38;;;;;;;5.13;2.20;;;;;;;;;;5065366;28;20067;-58
2021/03/29 07:05:05;;;;;;;5.10;2.30;;;;;;;;;;5064571;28;20048;-59
2021/03/29 07:07:32;;;;;;;6.45;2.17;;;;;;;;;;5064351;28;20485;-59
2021/03/29 07:09:59;;;;;;;3.20;2.00;;;;;;;;;;5060782;28;20041;-58
2021/03/29 07:12:27;;;;;;;4.68;2.08;;;;;;;;;;5060266;28;20052;-59
2021/03/29 07:14:55;;;;;;;2.40;1.77;;;;;;;;;;5058430;28;20037;-58
2021/03/29 07:17:23;;;;;;;3.25;1.70;;;;;;;;;;5061847;28;20045;-58
2021/03/29 07:19:50;;;;;;;4.50;2.08;;;;;;;;;;5063972;28;20044;-59
2021/03/29 07:22:18;;;;;;;4.07;1.63;;;;;;;;;;5059357;28;20083;-58
2021/03/29 07:24:45;;;;;;;3.63;1.98;;;;;;;;;;5062162;28;20439;-59
2021/03/29 07:27:13;;;;;;;3.20;1.67;;;;;;;;;;5068006;28;20049;-58
2021/03/29 07:29:45;;;;;;;3.70;2.05;;;;;;;;;;5069256;28;20048;-59
2021/03/29 07:32:29;;;;;;;3.50;1.55;;;;;;;;;;5071444;28;20102;-59
2021/03/29 07:34:55;;;;;;;4.07;1.77;;;;;;;;;;5064761;28;20052;-59
2021/03/29 07:37:35;;;;;;;3.40;1.77;;;;;;;;;;5066721;28;20049;-58
2021/03/29 07:40:06;;;;;;;4.15;1.58;;;;;;;;;;5063495;28;20078;-59
2021/03/29 07:42:32;;;;;;;2.88;1.80;;;;;;;;;;5064154;28;20127;-59
2021/03/29 07:45:00;;;;;;;3.08;1.50;;;;;;;;;;5064779;28;20063;-59
2021/03/29 07:47:26;;;;;;;;;;;;;;;;;;5064185;28;20579;-58
2021/03/29 07:49:53;;;;;;;4.05;1.50;;;;;;;;;;5062755;28;19928;-58
2021/03/29 07:52:32;;;;;;;2.47;1.55;;;;;;;;;;5054830;28;20419;-59
2021/03/29 07:55:00;;;;;;;4.35;1.58;;;;;;;;;;5067777;28;20041;-59
2021/03/29 07:57:45;;;;;;;3.15;1.63;;;;;;;;;;5068748;28;20165;-59
2021/03/29 08:00:11;;;;;;;2.67;1.77;;;;;;;;;;5066634;28;20087;-59
2021/03/29 08:02:39;;;;;;;1.48;1.20;;;;;;;;;;5064202;28;20592;-59
2021/03/29 08:05:14;;;;;;;3.10;1.60;;;;;;;;;;5064701;28;20437;-59
2021/03/29 08:07:42;;;;;;;2.47;1.33;;;;;;;;;;5063377;28;20131;-59
2021/03/29 08:10:09;;;;;;;2.42;1.30;;;;;;;;;;5061212;28;20040;-59
2021/03/29 08:12:36;;;;;;;2.13;1.05;;;;;;;;;;5063279;28;20453;-59
2021/03/29 08:15:04;;;;;;;1.70;1.17;;;;;;;;;;5063246;28;20055;-59
2021/03/29 08:17:30;;;;;;;;;;;;;;;;;;5062517;28;20076;-59
2021/03/29 08:20:10;;;;;;;0.82;0.82;;;;;;;;;;5066172;28;19920;-59
2021/03/29 08:22:37;;;;;;;2.55;1.23;;;;;;;;;;5066080;28;20056;-59
2021/03/29 08:25:03;;;;;;;1.57;1.40;;;;;;;;;;5062326;28;20123;-59
2021/03/29 08:27:31;;;;;;;1.00;0.90;;;;;;;;;;5066003;28;20322;-59
2021/03/29 08:30:13;;;;;;;1.60;1.35;;;;;;;;;;5061434;28;20382;-58
2021/03/29 08:32:40;;;;;;;1.25;1.15;;;;;;;;;;5067518;28;20053;-59
2021/03/29 08:35:11;;;;;;;0.95;0.95;;;;;;;;;;5068534;28;20045;-59
2021/03/29 08:37:39;;;;;;;1.92;1.25;;;;;;;;;;5063860;28;20543;-59
2021/03/29 08:40:11;;;;;;;2.05;1.17;;;;;;;;;;5058690;28;20036;-59
2021/03/29 08:42:37;;;;;;;3.45;1.40;;;;;;;;;;5059603;28;20087;-59
2021/03/29 08:45:05;;;;;;;2.97;1.42;;;;;;;;;;5059916;28;20120;-58
2021/03/29 08:47:32;;;;;;;1.88;1.30;;;;;;;;;;5064510;28;20098;-59
2021/03/29 08:50:02;;;;;;;2.08;1.80;;;;;;;;;;5064211;28;20500;-59
2021/03/29 08:52:39;;;;;;;1.65;1.20;;;;;;;;;;5066706;28;20041;-59
2021/03/29 08:55:06;;;;;;;2.85;2.00;;;;;;;;;;5064438;28;20409;-59
2021/03/29 08:57:32;;;;;;;2.15;1.70;;;;;;;;;;5066121;28;20045;-59
2021/03/29 09:00:00;;;;;;;2.30;1.85;;;;;;;;;;5053302;28;20115;-58
2021/03/29 09:02:27;;;;;;;3.65;1.63;;;;;;;;;;5062829;28;20578;-59
2021/03/29 09:04:58;;;;;;;4.38;1.80;;;;;;;;;;5062803;28;20044;-59
2021/03/29 09:07:32;;;;;;;3.83;2.10;;;;;;;;;;5063912;28;20377;-59
2021/03/29 09:09:59;;;;;;;2.88;1.90;;;;;;;;;;5068312;28;20045;-59
2021/03/29 09:12:32;;;;;;;2.90;1.85;;;;;;;;;;5064181;28;20037;-59
2021/03/29 09:14:59;;;;;;;3.83;2.20;;;;;;;;;;5063604;28;20488;-59
2021/03/29 09:17:26;;;;;;;5.40;2.58;;;;;;;;;;5066015;28;20094;-59
2021/03/29 09:19:53;;;;;;;3.75;2.53;;;;;;;;;;5068162;28;20036;-59
2021/03/29 09:22:30;;;;;;;5.17;3.00;;;;;;;;;;5065069;28;20040;-59
2021/03/29 09:24:57;;;;;;;6.55;3.10;;;;;;;;;;5066103;28;20356;-59
2021/03/29 09:27:30;;;;;;;7.43;3.15;;;;;;;;;;5066728;28;20056;-59
2021/03/29 09:29:58;;;;;;;8.57;2.85;;;;;;;;;;5067814;28;20066;-58
2021/03/29 09:32:25;;;;;;;8.25;3.35;;;;;;;;;;5063559;28;20088;-59
2021/03/29 09:34:52;;;;;;;9.05;4.53;;;;;;;;;;5069856;28;20110;-59
2021/03/29 09:37:19;;;;;;;10.43;5.32;;;;;;;;;;5063701;28;20033;-58
2021/03/29 09:39:46;;;;;;;7.93;4.57;;;;;;;;;;5063968;28;20041;-59
2021/03/29 09:42:15;;;;;;;10.98;5.43;;;;;;;;;;5059946;28;20567;-59
2021/03/29 09:44:43;;;;;;;12.73;5.35;;;;;;;;;;5066764;28;20040;-59
2021/03/29 09:47:09;;;;;;;10.27;5.70;;;;;;;;;;5065178;28;20051;-58
2021/03/29 09:49:49;;;;;;;12.48;5.75;;;;;;;;;;5067373;28;20500;-59
2021/03/29 09:52:15;;;;;;;12.48;5.97;;;;;;;;;;5064004;28;20094;-59
2021/03/29 09:54:49;;;;;;;18.90;6.45;;;;;;;;;;5064779;28;20068;-58
2021/03/29 09:57:18;;;;;;;18.30;7.70;;;;;;;;;;5066510;28;20037;-59
2021/03/29 09:59:45;;;;;;;11.32;5.40;;;;;;;;;;5065431;28;20056;-59
2021/03/29 10:02:12;;;;;;;14.43;5.68;;;;;;;;;;5062120;28;20051;-59
2021/03/29 10:04:39;;;;;;;15.18;6.15;;;;;;;;;;5061632;28;20041;-59
2021/03/29 10:07:11;;;;;;;11.35;6.25;;;;;;;;;;5060863;28;20128;-59
2021/03/29 10:09:37;;;;;;;11.00;5.25;;;;;;;;;;5064471;28;20049;-59
2021/03/29 10:12:05;;;;;;;12.43;4.78;;;;;;;;;;5059911;28;20045;-59
2021/03/29 10:14:33;;;;;;;15.52;5.70;;;;;;;;;;5059012;28;20051;-59
2021/03/29 10:17:12;;;;;;;12.10;4.38;;;;;;;;;;5062511;28;20037;-59
2021/03/29 10:19:39;;;;;;;11.63;4.88;;;;;;;;;;5065978;28;20131;-59
2021/03/29 10:22:05;;;;;;;9.90;4.10;;;;;;;;;;5055336;28;20069;-59
2021/03/29 10:24:36;;;;;;;10.73;4.47;;;;;;;;;;5059883;28;20040;-59
2021/03/29 10:27:07;;;;;;;12.88;4.90;;;;;;;;;;5061000;28;20053;-58
2021/03/29 10:29:40;;;;;;;9.52;4.57;;;;;;;;;;5063175;28;20052;-59
2021/03/29 10:32:08;;;;;;;9.50;3.72;;;;;;;;;;5064875;28;20636;-59
2021/03/29 10:34:38;;;;;;;13.38;3.63;;;;;;;;;;5062433;28;20519;-59
2021/03/29 10:37:05;;;;;;;11.93;4.53;;;;;;;;;;5064375;28;20075;-59
2021/03/29 10:39:31;;;;;;;;;;;;;;;;;;5064838;28;20033;-59
2021/03/29 10:41:58;;;;;;;6.30;3.45;;;;;;;;;;5065039;28;19974;-59
2021/03/29 10:44:24;;;;;;;9.23;3.75;;;;;;;;;;5065440;28;20052;-59
2021/03/29 10:46:50;;;;;;;9.20;4.00;;;;;;;;;;5066778;28;20087;-59
2021/03/29 10:49:17;;;;;;;8.45;3.78;;;;;;;;;;5063661;28;20131;-59
2021/03/29 10:51:43;;;;;;;6.80;3.33;;;;;;;;;;5058060;28;20036;-59
2021/03/29 10:54:10;;;;;;;8.95;3.45;;;;;;;;;;5055462;28;20120;-59
2021/03/29 10:56:36;;;;;;;13.90;4.00;;;;;;;;;;5061485;28;20049;-59
2021/03/29 10:59:02;;;;;;;8.88;3.65;;;;;;;;;;5048426;28;20068;-59
2021/03/29 11:01:31;;;;;;;10.07;3.17;;;;;;;;;;5058321;28;20044;-59
2021/03/29 11:03:57;;;;;;;9.93;3.42;;;;;;;;;;5063294;28;20090;-59
2021/03/29 11:06:24;;;;;;;11.40;3.75;;;;;;;;;;5060274;28;20048;-59
2021/03/29 11:08:50;;;;;;;9.38;2.90;;;;;;;;;;5062014;28;20111;-59
2021/03/29 11:11:18;;;;;;;5.75;3.22;;;;;;;;;;5062262;28;20136;-59
2021/03/29 11:13:45;;;;;;;8.00;3.25;;;;;;;;;;5056650;28;20083;-59
2021/03/29 11:16:13;;;;;;;11.23;3.83;;;;;;;;;;5065313;28;20485;-59
2021/03/29 11:18:40;;;;;;;6.18;2.97;;;;;;;;;;5062533;28;20049;-59
2021/03/29 11:21:06;;;;;;;11.07;3.03;;;;;;;;;;5060639;28;20124;-59
2021/03/29 11:23:33;;;;;;;6.47;2.50;;;;;;;;;;5059149;28;20136;-59
2021/03/29 11:25:59;;;;;;;6.15;2.83;;;;;;;;;;5054487;28;20061;-59
2021/03/29 11:28:26;;;;;;;5.30;2.72;;;;;;;;;;5057865;28;20142;-59
2021/03/29 11:30:52;;;;;;;8.18;2.63;;;;;;;;;;5060561;28;20072;-59
2021/03/29 11:33:18;;;;;;;7.97;2.50;;;;;;;;;;5057982;28;20103;-59
2021/03/29 11:35:44;;;;;;;4.07;2.13;;;;;;;;;;5060843;28;20389;-59
2021/03/29 11:38:12;;;;;;;8.45;1.55;;;;;;;;;;5066959;28;20504;-59
2021/03/29 11:40:38;;;;;;;4.30;1.95;;;;;;;;;;5062084;28;20124;-59
2021/03/29 11:43:04;;;;;;;4.03;2.00;;;;;;;;;;5064555;28;20052;-59
2021/03/29 11:45:30;;;;;;;3.65;1.95;;;;;;;;;;5066480;28;20041;-59
2021/03/29 11:47:57;;;;;;;4.38;2.03;;;;;;;;;;5062598;28;20047;-59
2021/03/29 11:50:23;;;;;;;2.08;1.88;;;;;;;;;;5067765;28;20115;-59
2021/03/29 11:52:50;;;;;;;3.88;1.77;;;;;;;;;;5058449;28;20508;-59
2021/03/29 11:55:16;;;;;;;2.58;2.03;;;;;;;;;;5064089;28;20040;-59
2021/03/29 11:57:44;;;;;;;4.57;1.63;;;;;;;;;;5063741;28;20079;-59
2021/03/29 12:00:18;;;;;;;3.45;1.85;;;;;;;;;;5068249;28;20471;-59
2021/03/29 12:03:11;;;;;;;3.77;1.80;;;;;;;;;;5065038;28;20048;-59
2021/03/29 12:05:39;;;;;;;4.75;1.88;;;;;;;;;;5064234;28;20044;-59
2021/03/29 12:13:37;;;;;;;3.38;1.70;;;;;;;;;;5069858;28;20130;-59
2021/03/29 12:16:05;;;;;;;1.58;1.38;;;;;;;;;;5062244;28;20041;-59
2021/03/29 12:18:39;;;;;;;3.08;1.50;;;;;;;;;;5067847;28;20044;-59
2021/03/29 12:21:13;;;;;;;3.10;1.13;;;;;;;;;;5064702;28;20274;-58
2021/03/29 12:23:42;;;;;;;3.38;1.40;;;;;;;;;;5066561;28;20037;-59
2021/03/29 12:26:09;;;;;;;1.55;1.40;;;;;;;;;;5070589;28;20058;-59
2021/03/29 12:28:36;;;;;;;2.35;1.15;;;;;;;;;;5062986;28;20110;-59
2021/03/29 12:31:06;;;;;;;1.33;1.10;;;;;;;;;;5064985;28;20059;-59
2021/03/29 12:33:33;;;;;;;3.88;1.50;;;;;;;;;;5067509;28;20040;-59
2021/03/29 12:36:00;;;;;;;1.83;1.30;;;;;;;;;;5065108;28;20441;-59
2021/03/29 12:38:30;;;;;;;2.13;1.27;;;;;;;;;;5063534;28;20047;-58
2021/03/29 12:40:59;;;;;;;1.63;1.00;;;;;;;;;;5068030;28;20036;-59
2021/03/29 12:43:41;;;;;;;2.20;1.08;;;;;;;;;;5063386;28;20098;-59
2021/03/29 12:46:07;;;;;;;1.40;1.00;;;;;;;;;;5060508;28;20041;-59
2021/03/29 12:48:36;;;;;;;2.17;0.70;;;;;;;;;;5063751;28;20127;-59
2021/03/29 12:51:04;;;;;;;1.73;0.90;;;;;;;;;;5067435;28;20048;-59
2021/03/29 12:53:31;;;;;;;;;;;;;;;;;;5063868;28;20053;-59
2021/03/29 12:55:58;;;;;;;2.85;0.80;;;;;;;;;;5064570;28;19931;-60
2021/03/29 12:58:24;;;;;;;0.98;0.73;;;;;;;;;;5067149;28;20123;-59
2021/03/29 13:00:53;;;;;;;1.02;0.75;;;;;;;;;;5066255;28;20045;-59
2021/03/29 13:03:20;;;;;;;0.82;0.82;;;;;;;;;;5060460;28;20052;-59
2021/03/29 13:08:18;;;;;;;2.00;0.90;;;;;;;;;;5062476;28;20072;-59
2021/03/29 13:13:33;;;;;;;3.58;1.05;;;;;;;;;;5061132;28;20068;-59
2021/03/29 13:16:01;;;;;;;2.45;1.30;;;;;;;;;;5058761;28;20110;-59
2021/03/29 13:18:27;;;;;;;2.17;1.17;;;;;;;;;;5066856;28;20095;-59
2021/03/29 13:20:55;;;;;;;8.18;1.48;;;;;;;;;;5066319;28;20052;-59
2021/03/29 13:23:21;;;;;;;2.63;1.38;;;;;;;;;;5060544;28;20103;-59
2021/03/29 13:25:47;;;;;;;9.52;1.70;;;;;;;;;;5068513;28;20044;-59
2021/03/29 13:28:14;;;;;;;4.47;1.63;;;;;;;;;;5069021;28;20060;-59
2021/03/29 13:30:41;;;;;;;7.88;1.83;;;;;;;;;;5065713;28;20045;-59
2021/03/29 13:33:08;;;;;;;11.63;2.47;;;;;;;;;;5064108;28;20093;-59
2021/03/29 13:35:35;;;;;;;9.75;2.72;;;;;;;;;;5063432;28;20044;-59
2021/03/29 13:38:03;;;;;;;9.23;2.28;;;;;;;;;;5068081;28;20519;-59
2021/03/29 13:40:29;;;;;;;8.40;2.28;;;;;;;;;;5062842;28;20041;-59
2021/03/29 13:42:56;;;;;;;9.70;2.90;;;;;;;;;;5052542;28;20546;-59
2021/03/29 13:45:23;;;;;;;8.50;2.03;;;;;;;;;;5065866;28;20124;-59
2021/03/29 13:47:49;;;;;;;15.07;3.53;;;;;;;;;;5059314;28;20327;-59
2021/03/29 13:50:16;;;;;;;23.98;4.00;;;;;;;;;;5066357;28;20041;-59
2021/03/29 13:52:47;;;;;;;18.42;4.05;;;;;;;;;;5067925;28;20107;-59
2021/03/29 13:55:13;;;;;;;22.15;4.13;;;;;;;;;;5065031;28;20499;-59
2021/03/29 13:57:40;;;;;;;19.37;4.00;;;;;;;;;;5067217;28;20049;-59
2021/03/29 14:00:09;;;;;;;24.75;4.00;;;;;;;;;;5064597;28;20049;-59
2021/03/29 14:02:56;;;;;;;29.17;5.18;;;;;;;;;;5067319;28;20040;-59
2021/03/29 14:05:27;;;;;;;28.85;4.90;;;;;;;;;;5064838;28;20068;-59
2021/03/29 14:07:53;;;;;;;27.58;5.70;;;;;;;;;;5060297;28;20051;-59
2021/03/29 14:10:20;;;;;;;27.58;5.22;;;;;;;;;;5061838;28;20048;-59
2021/03/29 14:12:46;;;;;;;30.20;4.87;;;;;;;;;;5062703;28;20049;-59
2021/03/29 14:15:13;;;;;;;31.90;5.90;;;;;;;;;;5066231;28;20029;-59
2021/03/29 14:17:39;;;;;;;39.25;6.57;;;;;;;;;;5058982;28;20118;-59
2021/03/29 14:20:07;;;;;;;43.65;7.03;;;;;;;;;;5059867;28;20094;-59
2021/03/29 14:22:37;;;;;;;44.10;7.20;;;;;;;;;;5063519;28;20052;-59
2021/03/29 14:25:05;;;;;;;49.65;7.53;;;;;;;;;;5068723;28;20123;-59
2021/03/29 14:27:32;;;;;;;41.33;7.32;;;;;;;;;;5064419;28;20541;-59
2021/03/29 14:29:58;;;;;;;39.88;7.25;;;;;;;;;;5060678;28;20048;-61
2021/03/29 14:32:24;;;;;;;51.08;8.85;;;;;;;;;;5064357;28;20044;-59
2021/03/29 14:35:09;;;;;;;47.30;7.82;;;;;;;;;;5062745;28;20445;-59
2021/03/29 14:40:11;;;;;;;45.20;8.05;;;;;;;;;;5062203;28;20040;-59
2021/03/29 14:42:46;;;;;;;38.47;6.70;;;;;;;;;;5056929;28;20070;-59
2021/03/29 14:45:13;;;;;;;47.28;8.35;;;;;;;;;;5065926;28;20095;-59
2021/03/29 14:47:39;;;;;;;46.45;8.10;;;;;;;;;;5061756;28;20514;-59
2021/03/29 14:50:06;;;;;;;46.85;8.32;;;;;;;;;;5065259;28;20095;-59
2021/03/29 14:52:37;;;;;;;53.33;8.00;;;;;;;;;;5065781;28;20098;-58
2021/03/29 14:55:08;;;;;;;35.58;6.78;;;;;;;;;;5062099;28;20554;-59
2021/03/29 14:57:34;;;;;;;43.90;8.10;;;;;;;;;;5060680;28;20049;-59